Time;durP1;ratioP1;P1;durP2;ratioP2;P2;SDS_P1;SDS_P2;PMS_P1;PMS_P2;Temp;Humidity;BMP_temperature;BMP_pressure;BME280_temperature;BME280_humidity;BME280_pressure;Samples;Min_cycle;Max_cycle;Signal;HPM_P1;HPM_P2
2022/07/20 00:01:35;;;;;;;8.40;4.15;;;;;;;26.44;32.68;101137.78;5080322;28;20538;-59
2022/07/20 00:04:00;;;;;;;8.52;4.18;;;;;;;26.36;32.89;101133.69;5084753;28;20023;-59
2022/07/20 00:06:26;;;;;;;10.00;3.95;;;;;;;26.35;33.27;101140.22;5085266;28;20117;-57
2022/07/20 00:11:35;;;;;;;10.48;3.83;;;;;;;26.18;33.57;101134.13;5090297;28;20039;-59
2022/07/20 00:14:03;;;;;;;7.97;3.97;;;;;;;26.16;33.58;101136.31;5084814;28;20028;-57
2022/07/20 00:16:30;;;;;;;8.48;4.43;;;;;;;26.16;33.84;101142.56;5085006;28;20040;-57
2022/07/20 00:18:55;;;;;;;7.38;3.60;;;;;;;26.08;34.25;101139.56;5089233;28;20028;-57
2022/07/20 00:21:21;;;;;;;7.00;4.13;;;;;;;25.90;35.23;101128.03;5086572;28;20024;-57
2022/07/20 00:23:47;;;;;;;9.77;3.80;;;;;;;25.92;35.36;101141.38;5083743;28;20698;-56
2022/07/20 00:26:12;;;;;;;8.93;4.03;;;;;;;25.92;34.73;101144.91;5081637;28;20024;-58
2022/07/20 00:28:38;;;;;;;10.00;3.90;;;;;;;25.82;35.10;101133.19;5087384;28;20047;-59
2022/07/20 00:31:04;;;;;;;8.57;4.28;;;;;;;25.83;34.68;101130.19;5088473;28;20028;-56
2022/07/20 00:33:29;;;;;;;11.32;4.00;;;;;;;25.75;35.37;101132.59;5081931;28;20374;-54
2022/07/20 00:35:55;;;;;;;9.65;3.80;;;;;;;25.79;34.99;101128.28;5085050;28;20027;-57
2022/07/20 00:38:20;;;;;;;10.63;4.35;;;;;;;25.78;34.81;101129.34;5082954;28;20024;-60
2022/07/20 00:40:46;;;;;;;13.50;4.30;;;;;;;25.76;34.82;101128.81;5083043;28;20024;-55
2022/07/20 00:43:11;;;;;;;11.70;4.28;;;;;;;25.66;35.51;101123.25;5084353;28;20625;-56
2022/07/20 00:45:36;;;;;;;11.52;4.30;;;;;;;25.41;36.92;101130.19;5088498;28;20019;-57
2022/07/20 00:48:02;;;;;;;9.48;3.92;;;;;;;25.37;37.39;101137.22;5083737;28;20020;-57
2022/07/20 00:50:27;;;;;;;12.23;4.18;;;;;;;24.88;37.29;101213.44;5084648;28;20028;-57
2022/07/20 00:52:53;;;;;;;11.18;4.40;;;;;;;24.54;37.69;101135.94;5084465;28;20598;-57
2022/07/20 00:55:18;;;;;;;12.02;4.10;;;;;;;24.55;37.52;101132.16;5085865;28;20028;-58
2022/07/20 00:57:44;;;;;;;9.25;4.45;;;;;;;24.57;37.45;101132.72;5085682;28;20019;-57
2022/07/20 01:00:10;;;;;;;14.68;4.00;;;;;;;24.50;37.97;101137.53;5081617;28;20051;-57
2022/07/20 01:02:38;;;;;;;10.75;4.60;;;;;;;24.61;37.26;101161.84;5084292;28;20028;-56
2022/07/20 01:05:05;;;;;;;11.27;4.03;;;;;;;24.62;37.28;101155.31;5084537;28;20045;-55
2022/07/20 01:07:31;;;;;;;7.97;4.25;;;;;;;24.70;37.61;101154.03;5083209;28;20085;-57
2022/07/20 01:09:56;;;;;;;6.95;3.88;;;;;;;24.64;37.52;101149.63;5084849;28;20024;-57
2022/07/20 01:12:22;;;;;;;8.63;4.50;;;;;;;24.42;37.75;101179.53;5086793;28;20477;-56
2022/07/20 01:14:53;;;;;;;8.52;3.50;;;;;;;24.36;38.13;101158.84;5090139;28;20056;-56
2022/07/20 01:17:18;;;;;;;7.68;4.00;;;;;;;24.29;37.74;101169.91;5089487;28;20423;-59
2022/07/20 01:19:43;;;;;;;8.95;4.07;;;;;;;24.30;37.83;101152.53;5086474;28;20183;-57
2022/07/20 01:22:09;;;;;;;8.35;4.10;;;;;;;24.28;37.95;101156.56;5089724;28;20034;-56
2022/07/20 01:24:34;;;;;;;10.13;4.07;;;;;;;24.26;38.30;101164.09;5089650;28;20058;-55
2022/07/20 01:26:59;;;;;;;10.38;3.97;;;;;;;24.34;38.97;101152.84;5090702;28;20097;-57
2022/07/20 01:29:24;;;;;;;10.57;4.00;;;;;;;24.30;38.67;101160.69;5089561;28;20031;-56
2022/07/20 01:31:50;;;;;;;7.80;4.00;;;;;;;24.27;39.01;101141.31;5087999;28;20599;-55
2022/07/20 01:34:15;;;;;;;10.32;4.20;;;;;;;24.24;39.21;101158.09;5091646;28;20034;-57
2022/07/20 01:36:40;;;;;;;10.73;4.07;;;;;;;24.29;39.46;101163.66;5093273;28;20027;-55
2022/07/20 01:39:06;;;;;;;14.60;4.68;;;;;;;24.31;39.10;101156.91;5096514;28;20024;-56
2022/07/20 01:41:31;;;;;;;8.07;4.28;;;;;;;24.24;39.36;101142.63;5086732;28;20032;-57
2022/07/20 01:43:57;;;;;;;8.88;4.20;;;;;;;24.17;39.33;101135.78;5087477;28;20077;-55
2022/07/20 01:46:22;;;;;;;14.32;4.68;;;;;;;24.17;39.36;101136.59;5091107;28;20031;-55
2022/07/20 01:48:47;;;;;;;9.38;4.78;;;;;;;24.08;39.33;101133.53;5085163;28;20028;-55
2022/07/20 01:51:13;;;;;;;9.57;4.50;;;;;;;24.02;39.65;101137.25;5091699;28;20035;-57
2022/07/20 01:53:38;;;;;;;5.43;4.13;;;;;;;23.93;39.75;101137.91;5085433;28;20043;-56
2022/07/20 01:56:03;;;;;;;8.77;4.35;;;;;;;23.95;39.79;101135.78;5089971;28;20028;-56
2022/07/20 01:58:29;;;;;;;10.13;4.03;;;;;;;23.83;40.19;101141.31;5092722;28;20564;-58
2022/07/20 02:00:54;;;;;;;9.65;4.25;;;;;;;23.86;40.06;101137.28;5088823;28;20049;-55
2022/07/20 02:03:19;;;;;;;7.60;4.25;;;;;;;23.82;40.34;101147.00;5085540;28;20524;-56
2022/07/20 02:05:45;;;;;;;9.43;4.13;;;;;;;23.76;41.03;101144.22;5085500;28;20127;-55
2022/07/20 02:08:10;;;;;;;10.70;4.40;;;;;;;23.77;41.74;101147.75;5085105;28;20044;-58
2022/07/20 02:10:36;;;;;;;8.48;3.97;;;;;;;23.56;41.96;101148.53;5088893;28;20137;-56
2022/07/20 02:13:01;;;;;;;9.50;4.20;;;;;;;23.65;40.53;101185.81;5087747;28;20111;-57
2022/07/20 02:18:12;;;;;;;8.38;4.50;;;;;;;22.93;41.58;101191.13;5087861;28;20054;-56
2022/07/20 02:20:38;;;;;;;10.02;4.53;;;;;;;22.88;41.22;101201.06;5089790;28;20035;-58
2022/07/20 02:23:05;;;;;;;16.25;4.72;;;;;;;22.82;41.87;101202.81;5084731;28;20081;-53
2022/07/20 02:25:31;;;;;;;9.32;4.40;;;;;;;22.75;41.64;101196.72;5084967;28;20111;-55
2022/07/20 02:27:56;;;;;;;9.43;4.50;;;;;;;22.71;41.85;101198.25;5088042;28;20139;-54
2022/07/20 02:30:22;;;;;;;15.43;5.40;;;;;;;22.76;42.21;101187.53;5090022;28;20097;-60
2022/07/20 02:32:47;;;;;;;10.07;5.60;;;;;;;22.72;42.48;101206.13;5086497;28;20020;-56
2022/07/20 02:35:13;;;;;;;12.38;6.40;;;;;;;22.68;43.03;101187.91;5089174;28;20035;-56
2022/07/20 02:37:38;;;;;;;12.68;6.90;;;;;;;22.56;43.78;101193.41;5090109;28;20381;-56
2022/07/20 02:40:04;;;;;;;13.80;7.43;;;;;;;22.49;44.76;101198.09;5088255;28;20038;-56
2022/07/20 02:42:30;;;;;;;15.98;8.63;;;;;;;22.40;45.31;101200.38;5086599;28;20075;-56
2022/07/20 02:44:55;;;;;;;15.35;8.45;;;;;;;22.34;45.56;101198.63;5089175;28;20698;-55
2022/07/20 02:47:20;;;;;;;19.27;9.32;;;;;;;22.25;46.57;101197.34;5084830;28;20126;-57
2022/07/20 02:49:46;;;;;;;20.48;9.77;;;;;;;22.13;47.63;101204.69;5084032;28;20047;-56
2022/07/20 02:52:11;;;;;;;20.25;9.70;;;;;;;22.07;48.31;101211.88;5087113;28;20400;-55
2022/07/20 02:54:36;;;;;;;23.30;11.32;;;;;;;22.01;48.65;101209.25;5086519;28;20491;-55
2022/07/20 02:57:02;;;;;;;27.42;11.98;;;;;;;21.98;49.51;101204.34;5087285;28;20032;-56
2022/07/20 02:59:27;;;;;;;20.23;12.90;;;;;;;21.97;50.29;101200.78;5082725;28;20032;-56
2022/07/20 03:01:52;;;;;;;21.20;12.95;;;;;;;21.88;50.80;101197.63;5086096;28;20057;-55
2022/07/20 03:04:17;;;;;;;26.02;13.85;;;;;;;21.89;51.89;101196.56;5087498;28;20024;-57
2022/07/20 03:06:43;;;;;;;25.25;14.82;;;;;;;21.89;52.03;101201.97;5080580;28;20426;-57
2022/07/20 03:09:08;;;;;;;25.67;15.60;;;;;;;21.87;52.44;101201.38;5085407;28;20077;-56
2022/07/20 03:11:34;;;;;;;29.75;16.35;;;;;;;21.83;53.42;101218.31;5091372;28;20027;-57
2022/07/20 03:13:59;;;;;;;24.85;16.95;;;;;;;21.74;54.40;101214.34;5086830;28;20101;-57
2022/07/20 03:16:24;;;;;;;27.77;15.95;;;;;;;21.73;54.38;101209.97;5086410;28;20107;-56
2022/07/20 03:18:50;;;;;;;27.17;14.85;;;;;;;21.71;54.39;101206.69;5081937;28;20057;-55
2022/07/20 03:21:15;;;;;;;25.23;14.15;;;;;;;21.76;54.22;101209.50;5087725;28;20465;-56
2022/07/20 03:23:40;;;;;;;25.25;13.98;;;;;;;21.80;54.16;101213.38;5087242;28;20011;-57
2022/07/20 03:26:06;;;;;;;21.08;13.63;;;;;;;21.82;53.95;101214.78;5085673;28;20066;-61
2022/07/20 03:28:31;;;;;;;21.20;12.95;;;;;;;21.82;53.77;101214.78;5086614;28;20028;-56
2022/07/20 03:30:56;;;;;;;26.20;12.73;;;;;;;21.74;53.19;101206.22;5087439;28;20028;-55
2022/07/20 03:33:21;;;;;;;23.40;12.75;;;;;;;21.75;53.21;101226.78;5088465;28;20429;-58
2022/07/20 03:35:47;;;;;;;21.73;12.65;;;;;;;21.71;53.12;101231.84;5089018;28;20032;-55
2022/07/20 03:38:12;;;;;;;25.98;13.00;;;;;;;21.70;53.05;101240.19;5083315;28;20645;-55
2022/07/20 03:40:37;;;;;;;24.33;13.43;;;;;;;21.71;53.33;101239.13;5082721;28;20112;-56
2022/07/20 03:43:03;;;;;;;21.63;14.23;;;;;;;21.65;53.88;101249.81;5085325;28;20027;-56
2022/07/20 03:45:28;;;;;;;23.45;14.07;;;;;;;21.67;53.99;101259.56;5092754;28;20492;-57
2022/07/20 03:47:54;;;;;;;28.75;14.50;;;;;;;21.64;54.33;101256.25;5085494;28;20553;-56
2022/07/20 03:50:19;;;;;;;35.35;14.65;;;;;;;21.64;54.56;101264.38;5085308;28;20031;-56
2022/07/20 03:52:45;;;;;;;26.27;16.20;;;;;;;21.63;55.19;101264.59;5086791;28;20028;-55
2022/07/20 03:55:10;;;;;;;33.85;16.58;;;;;;;21.59;55.96;101276.94;5088555;28;20024;-55
2022/07/20 03:57:35;;;;;;;28.02;17.40;;;;;;;21.56;56.83;101286.34;5094236;28;20026;-58
2022/07/20 04:00:01;;;;;;;35.15;17.90;;;;;;;21.54;56.98;101279.53;5086087;28;20027;-55
2022/07/20 04:02:26;;;;;;;39.67;18.88;;;;;;;21.53;58.00;101294.91;5085392;28;20028;-57
2022/07/20 04:04:51;;;;;;;36.60;19.58;;;;;;;21.47;58.07;101301.25;5086284;28;20103;-55
2022/07/20 04:07:16;;;;;;;34.30;19.58;;;;;;;21.50;58.93;101308.06;5092582;28;20439;-55
2022/07/20 04:09:45;;;;;;;40.85;22.20;;;;;;;21.47;59.40;101308.53;5082848;28;20019;-57
2022/07/20 04:12:15;;;;;;;30.63;22.35;;;;;;;21.46;60.31;101309.59;5084799;28;20624;-57
2022/07/20 04:14:42;;;;;;;33.95;22.60;;;;;;;21.44;60.92;101309.84;5081403;28;20473;-55
2022/07/20 04:17:07;;;;;;;34.13;22.58;;;;;;;21.45;61.06;101316.06;5088068;28;20596;-57
2022/07/20 04:19:35;;;;;;;37.75;23.65;;;;;;;21.41;61.93;101320.28;5086225;28;20028;-56
2022/07/20 04:22:00;;;;;;;40.90;24.00;;;;;;;21.44;61.80;101315.25;5085760;28;20027;-56
2022/07/20 04:24:26;;;;;;;43.10;24.92;;;;;;;21.46;62.44;101320.41;5092526;28;20059;-56
2022/07/20 04:26:52;;;;;;;39.45;26.13;;;;;;;21.52;62.82;101322.19;5086229;28;20052;-58
2022/07/20 04:29:17;;;;;;;38.40;25.38;;;;;;;21.53;62.95;101329.22;5089670;28;20038;-57
2022/07/20 04:31:44;;;;;;;41.80;26.45;;;;;;;21.54;63.52;101336.28;5084392;28;20027;-57
2022/07/20 04:34:10;;;;;;;40.55;26.65;;;;;;;21.54;63.62;101336.28;5086373;28;20043;-56
2022/07/20 04:36:35;;;;;;;41.08;26.35;;;;;;;21.57;63.90;101336.66;5088457;28;20031;-55
2022/07/20 04:39:00;;;;;;;41.75;27.38;;;;;;;21.55;63.74;101322.53;5085007;28;20027;-56
2022/07/20 04:41:25;;;;;;;38.13;27.48;;;;;;;21.61;63.98;101334.31;5085717;28;20028;-54
2022/07/20 04:43:51;;;;;;;40.03;26.48;;;;;;;21.68;64.31;101336.88;5083804;28;20369;-55
2022/07/20 04:46:16;;;;;;;40.60;27.52;;;;;;;21.72;64.58;101336.22;5084889;28;20024;-55
2022/07/20 04:48:41;;;;;;;41.60;26.92;;;;;;;21.79;64.11;101339.63;5087685;28;20011;-56
2022/07/20 04:51:07;;;;;;;40.38;26.38;;;;;;;21.83;64.21;101346.22;5084063;28;20704;-53
2022/07/20 04:53:32;;;;;;;39.65;26.50;;;;;;;21.85;64.30;101354.94;5082877;28;20025;-53
2022/07/20 04:55:57;;;;;;;39.97;26.38;;;;;;;21.85;64.37;101360.34;5084575;28;20020;-56
2022/07/20 04:58:23;;;;;;;36.38;26.08;;;;;;;21.86;64.55;101363.88;5075842;28;20043;-55
2022/07/20 05:00:48;;;;;;;37.08;25.83;;;;;;;21.88;64.45;101369.84;5082222;28;20056;-55
2022/07/20 05:03:13;;;;;;;42.03;24.52;;;;;;;21.87;64.38;101365.50;5084121;28;20111;-57
2022/07/20 05:05:38;;;;;;;36.92;25.52;;;;;;;21.89;64.31;101363.41;5089506;28;20031;-55
2022/07/20 05:08:04;;;;;;;38.72;25.52;;;;;;;21.91;64.42;101363.97;5089481;28;20065;-55
2022/07/20 05:10:30;;;;;;;38.47;24.92;;;;;;;21.92;64.46;101361.03;5083387;28;20107;-55
2022/07/20 05:12:55;;;;;;;37.00;24.50;;;;;;;21.88;63.90;101346.34;5081642;28;20077;-55
2022/07/20 05:15:23;;;;;;;35.70;23.83;;;;;;;21.99;63.82;101360.97;5078186;28;20020;-55
2022/07/20 05:17:49;;;;;;;34.17;23.30;;;;;;;22.05;63.87;101361.94;5086862;28;21146;-56
2022/07/20 05:20:14;;;;;;;36.53;23.33;;;;;;;22.09;63.64;101355.00;5082922;28;20028;-55
2022/07/20 05:22:39;;;;;;;34.90;22.90;;;;;;;22.15;63.56;101349.47;5088025;28;20027;-57
2022/07/20 05:25:05;;;;;;;35.53;23.38;;;;;;;22.21;63.50;101353.09;5084102;28;20024;-55
2022/07/20 05:27:30;;;;;;;38.58;23.27;;;;;;;22.24;63.29;101358.03;5088312;28;20250;-56
2022/07/20 05:29:56;;;;;;;34.95;22.70;;;;;;;22.28;63.26;101358.44;5085769;28;20020;-56
2022/07/20 05:32:21;;;;;;;36.05;23.15;;;;;;;22.31;63.58;101366.06;5088163;28;20051;-56
2022/07/20 05:34:46;;;;;;;34.72;22.90;;;;;;;22.32;63.69;101376.66;5099847;28;20053;-57
2022/07/20 05:37:11;;;;;;;33.90;21.92;;;;;;;22.32;63.70;101382.06;5086605;28;20059;-56
2022/07/20 05:39:37;;;;;;;34.28;22.35;;;;;;;22.31;63.31;101391.25;5088734;28;20040;-55
2022/07/20 05:42:02;;;;;;;34.72;22.23;;;;;;;22.32;63.67;101403.72;5082339;28;20028;-57
2022/07/20 05:44:27;;;;;;;34.47;21.15;;;;;;;22.31;63.59;101395.84;5091474;28;20504;-57
2022/07/20 05:46:53;;;;;;;35.53;21.92;;;;;;;22.31;63.79;101406.66;5092658;28;20469;-55
2022/07/20 05:49:18;;;;;;;33.47;21.80;;;;;;;22.37;63.85;101417.38;5090611;28;20035;-55
2022/07/20 05:51:43;;;;;;;32.78;22.10;;;;;;;22.39;63.71;101431.47;5092464;28;20012;-55
2022/07/20 05:54:08;;;;;;;35.03;21.98;;;;;;;22.40;63.91;101440.44;5087012;28;20179;-55
2022/07/20 05:56:34;;;;;;;38.30;22.15;;;;;;;22.41;64.03;101444.78;5100955;28;20059;-58
2022/07/20 05:58:59;;;;;;;36.38;22.52;;;;;;;22.47;64.31;101441.13;5091703;28;20077;-55
2022/07/20 06:01:24;;;;;;;32.78;22.38;;;;;;;22.52;63.82;101449.38;5092923;28;20512;-55
2022/07/20 06:03:50;;;;;;;29.90;21.75;;;;;;;22.54;63.88;101460.78;5090209;28;20024;-56
2022/07/20 06:06:15;;;;;;;31.48;20.00;;;;;;;22.56;63.58;101455.97;5098961;28;20085;-56
2022/07/20 06:08:40;;;;;;;34.47;19.77;;;;;;;22.60;63.34;101459.88;5091046;28;20469;-55
2022/07/20 06:11:08;;;;;;;27.75;18.23;;;;;;;22.68;63.57;101475.75;5089202;28;20065;-56
2022/07/20 06:13:34;;;;;;;33.60;18.92;;;;;;;22.76;63.46;101477.28;5090600;28;20046;-56
2022/07/20 06:15:59;;;;;;;26.15;17.98;;;;;;;22.77;62.42;101485.16;5089769;28;20469;-57
2022/07/20 06:18:24;;;;;;;24.25;17.00;;;;;;;22.79;62.46;101491.16;5088363;28;20089;-56
2022/07/20 06:20:49;;;;;;;27.17;17.25;;;;;;;22.78;62.13;101508.47;5094905;28;20042;-56
2022/07/20 06:23:15;;;;;;;26.02;15.38;;;;;;;22.82;61.54;101500.72;5094454;28;20019;-56
2022/07/20 06:25:40;;;;;;;27.40;15.45;;;;;;;22.82;61.17;101506.97;5095055;28;20503;-56
2022/07/20 06:28:07;;;;;;;27.35;15.65;;;;;;;22.82;60.92;101515.09;5085881;28;20016;-55
2022/07/20 06:30:32;;;;;;;26.85;15.00;;;;;;;22.85;61.04;101511.13;5094899;28;20016;-56
2022/07/20 06:32:58;;;;;;;22.50;14.15;;;;;;;22.87;60.65;101514.41;5096228;28;20115;-53
2022/07/20 06:35:23;;;;;;;24.73;13.57;;;;;;;22.93;60.62;101524.31;5091082;28;20020;-57
2022/07/20 06:37:48;;;;;;;23.15;13.52;;;;;;;22.94;60.17;101520.53;5099295;28;20020;-56
2022/07/20 06:40:13;;;;;;;29.42;13.75;;;;;;;22.92;59.91;101533.50;5093442;28;20028;-55
2022/07/20 06:42:39;;;;;;;22.63;12.43;;;;;;;22.91;60.23;101544.56;5090847;28;20024;-56
2022/07/20 06:45:05;;;;;;;21.95;12.82;;;;;;;22.82;60.48;101553.00;5088413;28;20504;-52
2022/07/20 06:47:30;;;;;;;24.33;12.48;;;;;;;22.88;60.28;101555.88;5096909;28;20052;-55
2022/07/20 06:49:56;;;;;;;24.08;12.18;;;;;;;22.84;60.38;101574.44;5089701;28;20546;-54
2022/07/20 06:52:21;;;;;;;22.73;11.52;;;;;;;22.80;59.97;101565.94;5082920;28;20039;-57
2022/07/20 06:54:47;;;;;;;20.45;12.60;;;;;;;22.80;60.37;101578.66;5086591;28;20482;-56
2022/07/20 06:57:13;;;;;;;21.23;12.38;;;;;;;22.81;60.30;101577.63;5088511;28;20031;-55
2022/07/20 06:59:39;;;;;;;21.95;11.75;;;;;;;22.80;60.23;101594.91;5095350;28;20028;-56
2022/07/20 07:02:05;;;;;;;20.17;11.93;;;;;;;22.82;60.79;101603.66;5094159;28;20016;-58
2022/07/20 07:04:30;;;;;;;21.33;11.50;;;;;;;22.83;60.93;101580.91;5088895;28;20054;-58
2022/07/20 07:06:55;;;;;;;21.98;11.80;;;;;;;22.91;61.00;101586.03;5086873;28;20151;-58
2022/07/20 07:09:21;;;;;;;20.05;11.88;;;;;;;22.98;60.53;101578.59;5089117;28;20020;-57
2022/07/20 07:11:46;;;;;;;18.42;12.27;;;;;;;23.06;61.15;101575.53;5093945;28;20008;-56
2022/07/20 07:14:11;;;;;;;21.42;12.27;;;;;;;23.11;60.93;101588.38;5092518;28;20076;-55
2022/07/20 07:16:37;;;;;;;23.17;12.43;;;;;;;23.11;60.31;101585.66;5086663;28;20123;-56
2022/07/20 07:19:02;;;;;;;26.05;12.30;;;;;;;23.10;60.81;101601.09;5087098;28;20591;-59
2022/07/20 07:21:28;;;;;;;22.42;12.60;;;;;;;23.06;60.36;101597.19;5088856;28;20031;-54
2022/07/20 07:23:53;;;;;;;20.25;13.13;;;;;;;23.02;60.43;101590.59;5093485;28;20409;-57
2022/07/20 07:26:20;;;;;;;20.88;12.93;;;;;;;23.01;60.51;101598.97;5092993;28;20024;-57
2022/07/20 07:28:46;;;;;;;22.33;12.32;;;;;;;23.03;60.12;101594.13;5088258;28;20027;-57
2022/07/20 07:31:12;;;;;;;20.15;12.57;;;;;;;23.07;59.97;101598.03;5084831;28;20031;-56
2022/07/20 07:33:38;;;;;;;21.17;12.25;;;;;;;23.16;60.21;101604.78;5085200;28;20032;-54
2022/07/20 07:36:04;;;;;;;23.08;12.93;;;;;;;23.27;59.66;101611.22;5089571;28;20020;-57
2022/07/20 07:38:29;;;;;;;21.58;12.88;;;;;;;23.33;59.63;101621.94;5087298;28;20030;-55
2022/07/20 07:40:55;;;;;;;19.55;12.52;;;;;;;23.45;59.58;101635.53;5088209;28;20103;-57
2022/07/20 07:43:20;;;;;;;19.83;12.43;;;;;;;23.46;58.95;101639.88;5085612;28;20034;-56
2022/07/20 07:45:46;;;;;;;23.17;12.77;;;;;;;23.52;59.23;101652.47;5084316;28;20393;-58
2022/07/20 07:48:11;;;;;;;23.38;12.70;;;;;;;23.60;59.45;101667.59;5087817;28;20047;-56
2022/07/20 07:50:41;;;;;;;23.30;12.48;;;;;;;23.58;58.89;101657.00;5085131;28;21308;-55
2022/07/20 07:53:07;;;;;;;22.17;12.23;;;;;;;23.64;58.92;101655.22;5084117;28;20031;-57
2022/07/20 07:55:37;;;;;;;19.25;12.07;;;;;;;23.67;58.98;101674.53;5089282;28;20019;-57
2022/07/20 07:58:03;;;;;;;22.92;11.55;;;;;;;23.74;59.41;101669.84;5085004;28;20028;-56
2022/07/20 08:00:29;;;;;;;20.10;12.25;;;;;;;23.71;58.70;101667.59;5087176;28;20107;-58
2022/07/20 08:02:54;;;;;;;21.60;12.32;;;;;;;23.69;58.74;101653.44;5092619;28;20126;-57
2022/07/20 08:05:20;;;;;;;21.90;12.15;;;;;;;23.66;58.12;101659.34;5090206;28;20039;-56
2022/07/20 08:07:46;;;;;;;19.90;11.88;;;;;;;23.71;58.26;101655.94;5089259;28;20413;-56
2022/07/20 08:10:11;;;;;;;20.10;11.85;;;;;;;23.82;58.69;101655.06;5084758;28;20115;-57
2022/07/20 08:12:37;;;;;;;21.25;12.38;;;;;;;23.95;58.56;101646.66;5089254;28;20052;-56
2022/07/20 08:15:04;;;;;;;18.25;11.52;;;;;;;24.05;58.00;101643.34;5092888;28;20020;-55
2022/07/20 08:17:29;;;;;;;20.23;11.40;;;;;;;24.18;57.73;101621.34;5086615;28;20111;-56
2022/07/20 08:19:54;;;;;;;20.23;10.35;;;;;;;24.35;57.34;101624.97;5090276;28;20027;-56
2022/07/20 08:22:20;;;;;;;17.48;10.45;;;;;;;24.42;56.03;101627.53;5089229;28;20027;-55
2022/07/20 08:24:46;;;;;;;19.45;10.45;;;;;;;24.53;55.43;101614.97;5098501;28;20027;-57
2022/07/20 08:27:11;;;;;;;15.80;10.30;;;;;;;24.63;55.27;101615.97;5084975;28;20032;-58
2022/07/20 08:29:36;;;;;;;18.48;10.13;;;;;;;24.75;55.18;101612.34;5088727;28;20020;-58
2022/07/20 08:32:02;;;;;;;15.45;9.98;;;;;;;24.87;55.17;101607.69;5090511;28;20028;-57
2022/07/20 08:34:28;;;;;;;18.95;10.07;;;;;;;24.96;54.69;101625.22;5095818;28;20101;-58
2022/07/20 08:36:53;;;;;;;15.05;9.57;;;;;;;24.98;53.31;101639.38;5086229;28;20031;-57
2022/07/20 08:39:19;;;;;;;15.43;9.95;;;;;;;24.96;52.98;101639.63;5086339;28;20031;-58
2022/07/20 08:41:45;;;;;;;14.65;9.50;;;;;;;24.99;53.08;101643.78;5090717;28;20590;-58
2022/07/20 08:44:10;;;;;;;14.50;9.02;;;;;;;25.01;52.25;101649.78;5093761;28;20036;-56
2022/07/20 08:46:36;;;;;;;14.48;9.20;;;;;;;24.98;51.76;101656.53;5091538;28;20104;-57
2022/07/20 08:49:03;;;;;;;17.00;10.00;;;;;;;25.08;52.32;101672.19;5085661;28;20077;-57
2022/07/20 08:51:28;;;;;;;15.77;9.27;;;;;;;25.16;51.88;101668.25;5085291;28;20042;-56
2022/07/20 08:53:56;;;;;;;18.15;9.93;;;;;;;25.31;52.67;101666.59;5081294;28;20024;-56
2022/07/20 08:56:22;;;;;;;14.73;9.73;;;;;;;25.44;52.67;101670.84;5087078;28;20153;-58
2022/07/20 08:58:47;;;;;;;17.52;9.63;;;;;;;25.52;52.26;101653.28;5091507;28;20570;-58
2022/07/20 09:01:14;;;;;;;14.88;10.30;;;;;;;25.51;52.17;101636.16;5090539;28;20106;-53
2022/07/20 09:03:41;;;;;;;15.20;9.48;;;;;;;25.56;52.27;101638.13;5085818;28;20023;-57
2022/07/20 09:06:07;;;;;;;18.73;10.43;;;;;;;25.70;52.19;101633.16;5086474;28;20069;-57
2022/07/20 09:08:33;;;;;;;17.80;9.77;;;;;;;25.82;51.98;101639.31;5091465;28;20405;-57
2022/07/20 09:11:04;;;;;;;15.77;9.90;;;;;;;25.91;50.78;101638.63;5095625;28;20015;-58
2022/07/20 09:13:32;;;;;;;17.17;9.63;;;;;;;25.98;50.93;101616.63;5082282;28;20092;-57
2022/07/20 09:15:58;;;;;;;16.35;9.85;;;;;;;26.00;50.35;101638.16;5087353;28;20465;-55
2022/07/20 09:18:28;;;;;;;12.88;9.80;;;;;;;26.13;50.75;101654.94;5087972;28;20089;-58
2022/07/20 09:21:02;;;;;;;17.63;9.75;;;;;;;26.05;49.62;101670.91;5094737;28;20019;-57
2022/07/20 09:23:33;;;;;;;14.30;10.10;;;;;;;25.96;49.81;101692.28;5084740;28;20040;-56
2022/07/20 09:26:06;;;;;;;14.63;9.60;;;;;;;25.87;50.03;101672.03;5089418;28;20027;-55
2022/07/20 09:28:37;;;;;;;14.65;9.57;;;;;;;25.90;50.11;101679.69;5092889;28;20032;-55
2022/07/20 09:31:08;;;;;;;17.60;9.65;;;;;;;26.09;50.36;101721.88;5091711;28;20544;-56
2022/07/20 09:33:33;;;;;;;14.32;10.13;;;;;;;26.21;50.31;101738.06;5090852;28;20406;-56
2022/07/20 09:36:02;;;;;;;16.33;10.15;;;;;;;26.32;50.05;101736.31;5090540;28;20024;-56
2022/07/20 09:38:45;;;;;;;18.75;10.45;;;;;;;26.32;50.25;101728.16;5086371;28;20528;-56
2022/07/20 09:41:27;;;;;;;14.20;10.23;;;;;;;26.24;49.92;101753.91;5085998;28;20028;-55
2022/07/20 09:43:52;;;;;;;16.50;9.90;;;;;;;26.16;49.96;101736.13;5088339;28;20573;-59
2022/07/20 09:46:22;;;;;;;16.05;9.80;;;;;;;26.13;50.23;101736.63;5091954;28;20107;-58
2022/07/20 09:48:56;;;;;;;18.30;9.43;;;;;;;26.16;50.03;101721.69;5084465;28;20023;-59
2022/07/20 09:51:36;;;;;;;18.73;9.65;;;;;;;26.28;49.87;101716.91;5085296;28;20694;-56
2022/07/20 09:54:05;;;;;;;13.68;8.82;;;;;;;26.24;49.84;101689.38;5090548;28;20032;-56
2022/07/20 09:56:31;;;;;;;14.10;8.77;;;;;;;26.32;50.16;101701.75;5088708;28;20028;-57
2022/07/20 09:58:59;;;;;;;13.00;8.98;;;;;;;26.49;49.66;101696.22;5087244;28;20105;-55
2022/07/20 10:01:27;;;;;;;13.40;8.80;;;;;;;26.71;49.80;101697.00;5086360;28;20040;-57
2022/07/20 10:03:55;;;;;;;11.70;8.25;;;;;;;26.83;49.38;101694.94;5084778;28;20035;-57
2022/07/20 10:06:22;;;;;;;14.75;9.63;;;;;;;27.00;49.04;101683.97;5089983;28;20024;-59
2022/07/20 10:08:49;;;;;;;11.30;8.52;;;;;;;27.25;49.63;101688.81;5089362;28;20627;-57
2022/07/20 10:11:15;;;;;;;13.25;7.15;;;;;;;27.39;48.33;101689.97;5092365;28;20028;-56
2022/07/20 10:13:42;;;;;;;11.32;6.90;;;;;;;27.43;46.25;101709.38;5084120;28;20052;-58
2022/07/20 10:16:13;;;;;;;12.73;7.70;;;;;;;27.49;46.36;101713.81;5090494;28;20031;-57
2022/07/20 10:18:41;;;;;;;14.23;7.57;;;;;;;27.52;46.76;101701.53;5096838;28;20035;-58
2022/07/20 10:21:40;;;;;;;12.00;7.80;;;;;;;27.65;47.29;101710.09;5097939;28;20012;-57
2022/07/20 10:24:29;;;;;;;15.18;7.57;;;;;;;27.70;46.58;101720.22;5086438;28;20036;-58
2022/07/20 10:27:06;;;;;;;10.93;6.55;;;;;;;27.69;46.24;101724.88;5083040;28;20088;-59
2022/07/20 10:29:39;;;;;;;9.40;6.30;;;;;;;27.55;45.47;101729.13;5091044;28;20032;-57
2022/07/20 10:32:23;;;;;;;8.85;6.20;;;;;;;27.46;45.39;101728.75;5090858;28;20041;-58
2022/07/20 10:34:54;;;;;;;11.45;6.57;;;;;;;27.37;44.56;101711.25;5087944;28;20035;-54
2022/07/20 10:37:36;;;;;;;13.15;6.20;;;;;;;27.50;45.90;101700.97;5088073;28;20119;-59
2022/07/20 10:40:09;;;;;;;11.90;6.40;;;;;;;27.51;45.39;101706.19;5088829;28;20504;-59
2022/07/20 10:42:47;;;;;;;10.57;6.05;;;;;;;27.42;44.69;101726.81;5085569;28;20024;-57
2022/07/20 10:45:27;;;;;;;15.45;6.80;;;;;;;27.27;45.33;101715.81;5088753;28;20039;-54
2022/07/20 10:48:14;;;;;;;9.52;6.53;;;;;;;27.34;45.34;101716.41;5087139;28;20031;-57
2022/07/20 10:50:52;;;;;;;7.95;6.20;;;;;;;27.50;45.34;101704.53;5089524;28;20089;-55
2022/07/20 10:53:17;;;;;;;9.52;5.70;;;;;;;27.29;44.65;101706.28;5084967;28;20021;-55
2022/07/20 10:55:42;;;;;;;9.57;6.00;;;;;;;27.09;44.52;101698.75;5084498;28;20031;-58
2022/07/20 10:58:12;;;;;;;7.40;5.97;;;;;;;27.17;45.46;101694.72;5088469;28;20054;-57
2022/07/20 11:00:50;;;;;;;7.70;5.32;;;;;;;27.23;45.49;101699.16;5085616;28;20035;-56
2022/07/20 11:03:15;;;;;;;9.45;6.10;;;;;;;27.44;45.59;101689.19;5086553;28;20015;-58
2022/07/20 11:05:42;;;;;;;10.15;5.68;;;;;;;27.67;45.97;101698.94;5088098;28;20031;-56
2022/07/20 11:08:09;;;;;;;8.98;5.60;;;;;;;27.72;44.61;101707.13;5083118;28;20028;-57
2022/07/20 11:10:34;;;;;;;8.32;5.68;;;;;;;27.74;44.43;101721.34;5087033;28;20020;-56
2022/07/20 11:13:03;;;;;;;10.60;5.90;;;;;;;27.94;44.73;101718.72;5082124;28;20043;-56
2022/07/20 11:15:49;;;;;;;9.85;6.13;;;;;;;28.05;44.33;101712.25;5080363;28;20035;-58
2022/07/20 11:18:18;;;;;;;10.82;6.00;;;;;;;28.02;44.16;101712.75;5083998;28;20027;-57